createdAt,value
2018-12-24T01:22:23.804Z,76.61
2018-12-24T01:26:29.802Z,76.52
2018-12-24T01:30:35.838Z,76.60
2018-12-24T01:34:42.008Z,76.47
2018-12-24T01:39:04.613Z,76.45
2018-12-24T01:43:01.484Z,76.49
2018-12-24T01:51:45.049Z,76.47
2018-12-24T01:55:50.475Z,76.11
2018-12-24T01:59:55.919Z,76.29
2018-12-24T02:04:01.325Z,76.30
2018-12-24T02:08:06.813Z,76.37
2018-12-24T02:12:12.658Z,76.34
2018-12-24T02:16:25.635Z,76.21
2018-12-24T02:20:31.213Z,76.29
2018-12-24T02:24:36.880Z,76.42
2018-12-24T02:28:42.423Z,76.34
2018-12-24T02:32:47.903Z,76.27
2018-12-24T02:36:53.361Z,76.34
2018-12-24T02:40:58.849Z,76.34
2018-12-24T02:45:04.331Z,76.41
2018-12-24T02:49:09.803Z,76.39
2018-12-24T02:53:15.276Z,76.34
2018-12-24T02:57:26.188Z,76.42
2018-12-24T03:01:31.689Z,76.45
2018-12-24T03:05:37.088Z,76.60
2018-12-24T03:09:42.600Z,76.46
2018-12-24T03:13:47.964Z,76.50
2018-12-24T03:17:53.251Z,76.47
2018-12-24T03:22:39.501Z,76.33
2018-12-24T03:26:45.004Z,76.22
2018-12-24T03:30:50.551Z,76.18
2018-12-24T03:34:56.022Z,76.32
2018-12-24T03:39:01.539Z,76.13
2018-12-24T03:43:27.915Z,76.28
2018-12-24T03:47:37.966Z,76.31
2018-12-24T03:51:43.548Z,76.36
2018-12-24T03:55:49.128Z,76.03
2018-12-24T03:59:54.575Z,76.04
2018-12-24T04:04:00.240Z,76.00
2018-12-24T04:08:06.023Z,76.03
2018-12-24T04:12:11.381Z,76.24
2018-12-24T04:16:16.761Z,76.37
2018-12-24T04:20:22.172Z,76.41
2018-12-24T04:24:27.624Z,76.56
2018-12-24T04:28:33.082Z,76.59
2018-12-24T04:32:57.658Z,76.63
2018-12-24T04:37:03.222Z,76.63
2018-12-24T04:41:27.737Z,76.66
2018-12-24T04:45:33.531Z,76.57
2018-12-24T04:49:38.926Z,76.42
2018-12-24T04:53:44.342Z,76.36
2018-12-24T04:57:50.027Z,76.37
2018-12-24T05:01:55.868Z,76.45
2018-12-24T05:06:01.622Z,76.52
2018-12-24T05:10:07.117Z,76.47
2018-12-24T05:14:12.801Z,76.36
2018-12-24T05:18:18.499Z,76.18
2018-12-24T05:22:23.830Z,76.09
2018-12-24T05:26:29.307Z,76.14
2018-12-24T05:30:34.747Z,76.07
2018-12-24T05:34:40.251Z,75.92
2018-12-24T05:38:45.746Z,75.75
2018-12-24T05:42:51.232Z,76.00
2018-12-24T05:46:56.672Z,76.10
2018-12-24T05:51:02.210Z,76.22
2018-12-24T05:55:07.778Z,76.16
2018-12-24T05:59:13.253Z,76.00
2018-12-24T06:03:18.718Z,75.86
2018-12-24T06:07:24.116Z,75.67
2018-12-24T06:11:30.049Z,75.76
2018-12-24T06:15:35.513Z,75.86
2018-12-24T06:19:40.913Z,75.78
2018-12-24T06:23:46.311Z,75.97
2018-12-24T06:27:51.766Z,75.71
2018-12-24T06:31:57.235Z,75.65
2018-12-24T06:36:02.708Z,75.76
2018-12-24T06:40:08.120Z,75.65
2018-12-24T06:44:13.597Z,75.67
2018-12-24T06:48:19.272Z,75.78
2018-12-24T06:52:24.763Z,75.59
2018-12-24T06:56:30.286Z,75.61
2018-12-24T07:00:35.754Z,75.75
2018-12-24T07:04:41.146Z,75.90
2018-12-24T07:08:46.619Z,75.96
2018-12-24T07:13:11.013Z,76.05
2018-12-24T07:17:16.384Z,75.96
2018-12-24T07:21:21.856Z,75.87
2018-12-24T07:25:38.697Z,75.92
2018-12-24T07:29:44.086Z,76.16
2018-12-24T07:33:49.464Z,76.08
2018-12-24T07:37:54.803Z,75.84
2018-12-24T07:42:00.210Z,75.85
2018-12-24T07:46:05.743Z,75.98
2018-12-24T07:54:48.541Z,75.64
2018-12-24T07:58:54.184Z,75.74
2018-12-24T08:02:59.661Z,75.74
2018-12-24T08:07:05.105Z,76.00
2018-12-24T08:15:34.834Z,73.90
2018-12-24T08:19:40.237Z,74.31
2018-12-24T08:23:45.574Z,74.87
2018-12-24T08:28:10.103Z,74.89
2018-12-24T08:32:15.604Z,74.83
2018-12-24T08:36:21.028Z,75.16
2018-12-24T08:40:26.467Z,75.12
2018-12-24T08:44:31.953Z,74.90
2018-12-24T08:48:39.100Z,75.01
2018-12-24T08:52:44.564Z,74.65
2018-12-24T08:56:50.245Z,74.71
2018-12-24T09:00:55.711Z,74.47
2018-12-24T09:05:01.166Z,74.31
2018-12-24T09:09:12.346Z,74.05
2018-12-24T09:13:17.750Z,74.28
2018-12-24T09:17:23.077Z,73.88
2018-12-24T09:21:28.588Z,73.91
2018-12-24T09:25:34.065Z,74.12
2018-12-24T09:29:39.541Z,74.12
2018-12-24T09:34:04.033Z,73.57
2018-12-24T09:38:14.617Z,73.33
2018-12-24T09:42:19.984Z,72.81
2018-12-24T09:51:02.358Z,72.40
2018-12-24T09:55:07.884Z,72.58
2018-12-24T09:59:13.491Z,71.78
2018-12-24T10:04:02.825Z,71.60
2018-12-24T10:08:13.571Z,70.77
2018-12-24T10:12:18.957Z,69.50
2018-12-24T10:16:24.355Z,68.87
2018-12-24T10:20:29.677Z,69.18
2018-12-24T10:24:34.994Z,69.11
2018-12-24T10:28:40.418Z,69.31
2018-12-24T10:32:45.867Z,67.55
2018-12-24T10:36:51.351Z,67.96
2018-12-24T10:41:10.294Z,68.02
2018-12-24T10:45:16.746Z,68.24
2018-12-24T10:49:42.171Z,66.90
2018-12-24T10:53:47.631Z,66.10
2018-12-24T10:57:53.059Z,66.23
2018-12-24T11:01:58.456Z,65.25
2018-12-24T11:06:03.835Z,63.26
2018-12-24T11:10:12.015Z,62.05
2018-12-24T11:14:17.295Z,60.92
2018-12-24T11:18:22.748Z,59.04
2018-12-24T11:22:28.204Z,58.67
2018-12-24T11:26:33.694Z,58.02
2018-12-24T11:30:39.169Z,55.70
2018-12-24T11:34:44.682Z,57.57
2018-12-24T11:38:50.159Z,56.19
2018-12-24T11:42:55.660Z,56.13
2018-12-24T11:47:01.142Z,55.69
2018-12-24T11:51:06.560Z,55.31
2018-12-24T11:55:14.503Z,50.65
2018-12-24T11:59:20.901Z,52.67
2018-12-24T12:03:26.867Z,51.75
2018-12-24T12:07:32.278Z,54.47
2018-12-24T12:11:37.645Z,51.47
2018-12-24T12:15:43.172Z,50.85
2018-12-24T12:19:48.483Z,50.44
2018-12-24T12:23:53.898Z,50.00
2018-12-24T12:27:59.639Z,51.55
2018-12-24T12:32:05.093Z,51.65
2018-12-24T12:36:10.424Z,49.90
2018-12-24T12:40:15.830Z,52.57
2018-12-24T12:44:21.324Z,51.59
2018-12-24T12:48:45.681Z,52.87
2018-12-24T12:53:02.371Z,52.59
2018-12-24T12:57:07.824Z,53.28
2018-12-24T13:01:13.326Z,55.06
2018-12-24T13:05:18.715Z,53.99
2018-12-24T13:09:24.386Z,54.18
2018-12-24T13:13:36.675Z,51.75
2018-12-24T13:22:04.470Z,53.06
2018-12-24T13:26:16.477Z,54.12
2018-12-24T13:34:39.164Z,53.01
2018-12-24T13:38:44.901Z,49.81
2018-12-24T13:42:50.239Z,49.10
2018-12-24T13:46:55.644Z,50.47
2018-12-24T13:51:19.984Z,52.18
2018-12-24T13:55:25.311Z,53.78
2018-12-24T13:59:30.849Z,55.03
2018-12-24T14:03:37.958Z,54.31
2018-12-24T14:07:43.279Z,51.35
2018-12-24T14:11:48.691Z,48.17
2018-12-24T14:15:54.204Z,47.59
2018-12-24T14:19:59.680Z,47.51
2018-12-24T14:24:05.183Z,45.92
2018-12-24T14:28:10.702Z,45.80
2018-12-24T14:32:16.153Z,43.81
2018-12-24T14:36:21.606Z,48.69
2018-12-24T14:40:45.934Z,48.84
2018-12-24T14:44:51.311Z,51.09
2018-12-24T14:48:56.712Z,52.59
2018-12-24T14:53:02.165Z,54.14
2018-12-24T14:57:07.559Z,55.33
2018-12-24T15:01:13.219Z,54.22
2018-12-24T15:05:18.927Z,54.13
2018-12-24T15:09:43.346Z,53.22
2018-12-24T15:13:48.680Z,52.66
2018-12-24T15:17:54.228Z,53.05
2018-12-24T15:21:59.751Z,54.84
2018-12-24T15:26:05.236Z,56.78
2018-12-24T15:30:10.775Z,56.98
2018-12-24T15:34:16.285Z,59.38
2018-12-24T15:38:21.681Z,62.11
2018-12-24T15:42:27.063Z,60.37
2018-12-24T15:46:32.504Z,62.36
2018-12-24T15:50:37.882Z,62.65
2018-12-24T15:54:43.275Z,62.32
2018-12-24T15:58:48.593Z,63.09
2018-12-24T16:02:53.978Z,64.14
2018-12-24T16:06:59.386Z,64.33
2018-12-24T16:11:04.781Z,64.53
2018-12-24T16:15:10.273Z,66.08
2018-12-24T16:19:15.696Z,66.64
2018-12-24T16:23:21.177Z,66.44
2018-12-24T16:27:26.664Z,65.59
2018-12-24T16:31:32.166Z,65.65
2018-12-24T16:35:37.695Z,66.96
2018-12-24T16:39:43.295Z,68.39
2018-12-24T16:44:08.008Z,68.05
2018-12-24T16:48:13.453Z,68.87
2018-12-24T16:52:18.966Z,69.59
2018-12-24T16:56:24.459Z,69.18
2018-12-24T17:00:29.941Z,67.86
2018-12-24T17:04:35.556Z,68.10
2018-12-24T17:08:41.230Z,68.06
2018-12-24T17:12:46.693Z,68.48
2018-12-24T17:16:52.198Z,69.99
2018-12-24T17:20:58.020Z,70.73
2018-12-24T17:25:03.580Z,71.00
2018-12-24T17:29:10.598Z,71.53
2018-12-24T17:33:16.072Z,71.16
2018-12-24T17:37:21.618Z,71.16
2018-12-24T17:41:27.124Z,71.54
2018-12-24T17:45:32.590Z,72.25
2018-12-24T17:49:38.113Z,72.64
2018-12-24T17:53:43.568Z,73.02
2018-12-24T17:57:49.366Z,73.16
2018-12-24T18:01:55.031Z,73.56
2018-12-24T18:06:00.547Z,73.50
2018-12-24T18:10:06.067Z,73.59
2018-12-24T18:14:30.575Z,73.20
2018-12-24T18:18:36.009Z,73.58
2018-12-24T18:22:41.407Z,74.05
2018-12-24T18:26:46.820Z,74.15
2018-12-24T18:30:52.308Z,73.56
2018-12-24T18:34:58.394Z,73.79
2018-12-24T18:39:04.718Z,74.01
2018-12-24T18:43:10.520Z,74.06
2018-12-24T18:47:16.018Z,74.30
2018-12-24T18:51:21.575Z,73.99
2018-12-24T18:55:26.959Z,74.39
2018-12-24T18:59:32.452Z,74.33
2018-12-24T19:03:37.970Z,73.89
2018-12-24T19:07:49.419Z,74.22
2018-12-24T19:11:54.930Z,74.41
2018-12-24T19:16:00.459Z,74.03
2018-12-24T19:20:07.529Z,73.83
2018-12-24T19:24:13.058Z,73.76
2018-12-24T19:28:18.798Z,73.40
2018-12-24T19:32:24.247Z,73.63
2018-12-24T19:36:29.766Z,73.73
2018-12-24T19:40:35.358Z,73.92
2018-12-24T19:44:40.710Z,74.19
2018-12-24T19:48:46.050Z,74.34
2018-12-24T19:52:51.630Z,74.31
2018-12-24T19:57:08.443Z,74.25
2018-12-24T20:01:13.809Z,74.25
2018-12-24T20:05:38.363Z,73.83
2018-12-24T20:09:43.954Z,73.44
2018-12-24T20:13:49.327Z,73.94
2018-12-24T20:17:58.293Z,74.20
2018-12-24T20:22:21.209Z,73.80
2018-12-24T20:26:26.721Z,73.49
2018-12-24T20:30:32.090Z,73.75
2018-12-24T20:34:37.690Z,73.77
2018-12-24T20:38:43.362Z,73.94
2018-12-24T20:42:48.793Z,74.43
2018-12-24T20:46:54.196Z,74.69
2018-12-24T20:50:59.667Z,74.72
2018-12-24T20:55:05.182Z,74.23
2018-12-24T20:59:10.716Z,74.32
2018-12-24T21:03:16.233Z,74.65
2018-12-24T21:07:21.657Z,74.54
2018-12-24T21:11:27.173Z,73.99
2018-12-24T21:15:32.681Z,73.96
2018-12-24T21:19:38.237Z,73.63
2018-12-24T21:23:44.141Z,73.99
2018-12-24T21:27:49.668Z,73.86
2018-12-24T21:31:55.166Z,73.88
2018-12-24T21:36:00.747Z,73.39
2018-12-24T21:44:38.515Z,73.23
2018-12-24T21:48:44.059Z,73.01
2018-12-24T21:52:49.558Z,73.24
2018-12-24T21:56:55.104Z,73.19
2018-12-24T22:01:00.658Z,73.82
2018-12-24T22:05:06.243Z,73.30
2018-12-24T22:09:30.876Z,73.29
2018-12-24T22:13:36.347Z,73.63
2018-12-24T22:17:41.888Z,73.85
2018-12-24T22:21:47.449Z,73.82
2018-12-24T22:25:53.004Z,74.04
2018-12-24T22:29:58.557Z,74.30
2018-12-24T22:34:04.064Z,74.18
2018-12-24T22:38:09.586Z,73.92
2018-12-24T22:42:15.211Z,74.32
2018-12-24T22:46:20.664Z,74.65
2018-12-24T22:50:26.062Z,74.35
2018-12-24T22:54:31.535Z,73.90
2018-12-24T22:58:37.083Z,74.06
2018-12-24T23:02:42.558Z,74.16
2018-12-24T23:06:48.044Z,73.12
2018-12-24T23:10:53.528Z,72.83
2018-12-24T23:14:59.000Z,72.80
2018-12-24T23:19:04.491Z,73.47
2018-12-24T23:23:09.964Z,73.14
2018-12-24T23:27:15.573Z,73.30
2018-12-24T23:31:21.082Z,72.54
2018-12-24T23:35:26.667Z,72.55
2018-12-24T23:39:32.173Z,71.56
2018-12-24T23:43:39.308Z,71.78
2018-12-24T23:47:56.136Z,72.21
2018-12-24T23:52:01.950Z,71.49
2018-12-24T23:56:07.435Z,70.91
